sensor_id;sensor_type;location;lat;lon;timestamp;P1;durP1;ratioP1;P2;durP2;ratioP2
2840;SDS011;53423;49.224;12.074;2022-12-19T00:01:56;50.43;;;26.53;;
2840;SDS011;53423;49.224;12.074;2022-12-19T00:04:24;58.37;;;27.63;;
2840;SDS011;53423;49.224;12.074;2022-12-19T00:06:52;48.30;;;27.83;;
2840;SDS011;53423;49.224;12.074;2022-12-19T00:09:22;48.33;;;27.43;;
2840;SDS011;53423;49.224;12.074;2022-12-19T00:11:51;49.50;;;26.33;;
2840;SDS011;53423;49.224;12.074;2022-12-19T00:14:20;52.00;;;25.70;;
2840;SDS011;53423;49.224;12.074;2022-12-19T00:16:48;50.53;;;27.47;;
2840;SDS011;53423;49.224;12.074;2022-12-19T00:19:16;49.07;;;26.53;;
2840;SDS011;53423;49.224;12.074;2022-12-19T00:21:44;45.83;;;25.83;;
2840;SDS011;53423;49.224;12.074;2022-12-19T00:24:12;52.90;;;26.67;;
2840;SDS011;53423;49.224;12.074;2022-12-19T00:26:47;50.67;;;26.37;;
2840;SDS011;53423;49.224;12.074;2022-12-19T00:29:16;44.80;;;25.13;;
2840;SDS011;53423;49.224;12.074;2022-12-19T00:31:45;48.73;;;25.67;;
2840;SDS011;53423;49.224;12.074;2022-12-19T00:34:13;48.13;;;24.43;;
2840;SDS011;53423;49.224;12.074;2022-12-19T00:36:41;47.33;;;25.33;;
2840;SDS011;53423;49.224;12.074;2022-12-19T00:39:09;48.83;;;25.60;;
2840;SDS011;53423;49.224;12.074;2022-12-19T00:41:38;48.90;;;26.23;;
2840;SDS011;53423;49.224;12.074;2022-12-19T00:44:09;50.63;;;25.90;;
2840;SDS011;53423;49.224;12.074;2022-12-19T00:46:42;51.27;;;26.33;;
2840;SDS011;53423;49.224;12.074;2022-12-19T00:49:19;51.40;;;26.53;;
2840;SDS011;53423;49.224;12.074;2022-12-19T00:51:47;49.80;;;26.70;;
2840;SDS011;53423;49.224;12.074;2022-12-19T00:54:15;45.67;;;25.77;;
2840;SDS011;53423;49.224;12.074;2022-12-19T00:56:44;52.60;;;26.17;;
2840;SDS011;53423;49.224;12.074;2022-12-19T00:59:12;44.70;;;25.07;;
2840;SDS011;53423;49.224;12.074;2022-12-19T01:01:43;48.07;;;24.77;;
2840;SDS011;53423;49.224;12.074;2022-12-19T01:04:11;48.87;;;25.87;;
2840;SDS011;53423;49.224;12.074;2022-12-19T01:07:02;46.93;;;25.10;;
2840;SDS011;53423;49.224;12.074;2022-12-19T01:09:31;50.13;;;25.37;;
2840;SDS011;53423;49.224;12.074;2022-12-19T01:12:00;47.70;;;25.60;;
2840;SDS011;53423;49.224;12.074;2022-12-19T01:14:50;46.77;;;24.57;;
2840;SDS011;53423;49.224;12.074;2022-12-19T01:17:21;47.70;;;25.47;;
2840;SDS011;53423;49.224;12.074;2022-12-19T01:19:49;52.70;;;26.60;;
2840;SDS011;53423;49.224;12.074;2022-12-19T01:22:18;46.50;;;25.40;;
2840;SDS011;53423;49.224;12.074;2022-12-19T01:24:46;47.97;;;26.00;;
2840;SDS011;53423;49.224;12.074;2022-12-19T01:27:14;45.87;;;24.83;;
2840;SDS011;53423;49.224;12.074;2022-12-19T01:29:42;48.20;;;26.07;;
2840;SDS011;53423;49.224;12.074;2022-12-19T01:32:18;43.23;;;23.90;;
2840;SDS011;53423;49.224;12.074;2022-12-19T01:34:46;46.67;;;25.30;;
2840;SDS011;53423;49.224;12.074;2022-12-19T01:37:14;47.97;;;24.63;;
2840;SDS011;53423;49.224;12.074;2022-12-19T01:39:46;44.47;;;25.10;;
2840;SDS011;53423;49.224;12.074;2022-12-19T01:42:15;42.53;;;24.43;;
2840;SDS011;53423;49.224;12.074;2022-12-19T01:48:04;44.00;;;25.00;;
2840;SDS011;53423;49.224;12.074;2022-12-19T01:50:41;40.40;;;23.97;;
2840;SDS011;53423;49.224;12.074;2022-12-19T01:53:28;49.67;;;25.93;;
2840;SDS011;53423;49.224;12.074;2022-12-19T01:56:03;47.47;;;25.87;;
2840;SDS011;53423;49.224;12.074;2022-12-19T01:58:33;49.60;;;27.87;;
2840;SDS011;53423;49.224;12.074;2022-12-19T02:01:02;52.60;;;26.93;;
2840;SDS011;53423;49.224;12.074;2022-12-19T02:03:31;44.40;;;24.97;;
2840;SDS011;53423;49.224;12.074;2022-12-19T02:06:02;42.93;;;24.07;;
2840;SDS011;53423;49.224;12.074;2022-12-19T02:08:31;42.60;;;23.80;;
2840;SDS011;53423;49.224;12.074;2022-12-19T02:11:02;44.80;;;25.30;;
2840;SDS011;53423;49.224;12.074;2022-12-19T02:13:30;43.83;;;24.40;;
2840;SDS011;53423;49.224;12.074;2022-12-19T02:15:59;42.30;;;24.43;;
2840;SDS011;53423;49.224;12.074;2022-12-19T02:18:34;41.97;;;24.47;;
2840;SDS011;53423;49.224;12.074;2022-12-19T02:21:24;44.07;;;24.73;;
2840;SDS011;53423;49.224;12.074;2022-12-19T02:30:09;47.33;;;24.23;;
2840;SDS011;53423;49.224;12.074;2022-12-19T02:32:43;46.90;;;26.03;;
2840;SDS011;53423;49.224;12.074;2022-12-19T02:35:22;42.97;;;25.67;;
2840;SDS011;53423;49.224;12.074;2022-12-19T02:37:58;39.30;;;23.20;;
2840;SDS011;53423;49.224;12.074;2022-12-19T02:40:39;45.30;;;24.90;;
2840;SDS011;53423;49.224;12.074;2022-12-19T02:43:16;42.57;;;23.70;;
2840;SDS011;53423;49.224;12.074;2022-12-19T02:45:45;43.67;;;23.53;;
2840;SDS011;53423;49.224;12.074;2022-12-19T02:48:16;44.67;;;23.93;;
2840;SDS011;53423;49.224;12.074;2022-12-19T02:50:45;45.37;;;24.80;;
2840;SDS011;53423;49.224;12.074;2022-12-19T02:53:15;44.90;;;24.03;;
2840;SDS011;53423;49.224;12.074;2022-12-19T02:55:49;41.83;;;23.90;;
2840;SDS011;53423;49.224;12.074;2022-12-19T02:58:40;44.43;;;23.90;;
2840;SDS011;53423;49.224;12.074;2022-12-19T03:01:17;43.77;;;25.37;;
2840;SDS011;53423;49.224;12.074;2022-12-19T03:03:59;39.03;;;23.13;;
2840;SDS011;53423;49.224;12.074;2022-12-19T03:06:39;43.00;;;23.63;;
2840;SDS011;53423;49.224;12.074;2022-12-19T03:09:12;43.67;;;24.37;;
2840;SDS011;53423;49.224;12.074;2022-12-19T03:11:46;46.00;;;24.40;;
2840;SDS011;53423;49.224;12.074;2022-12-19T03:14:19;43.33;;;23.00;;
2840;SDS011;53423;49.224;12.074;2022-12-19T03:16:48;40.50;;;22.70;;
2840;SDS011;53423;49.224;12.074;2022-12-19T03:19:18;42.77;;;23.13;;
2840;SDS011;53423;49.224;12.074;2022-12-19T03:21:46;39.73;;;23.07;;
2840;SDS011;53423;49.224;12.074;2022-12-19T03:24:15;40.87;;;23.13;;
2840;SDS011;53423;49.224;12.074;2022-12-19T03:26:46;40.40;;;23.30;;
2840;SDS011;53423;49.224;12.074;2022-12-19T03:29:20;37.97;;;22.77;;
2840;SDS011;53423;49.224;12.074;2022-12-19T03:31:54;44.03;;;24.77;;
2840;SDS011;53423;49.224;12.074;2022-12-19T03:34:25;42.60;;;23.50;;
2840;SDS011;53423;49.224;12.074;2022-12-19T03:36:58;41.83;;;24.30;;
2840;SDS011;53423;49.224;12.074;2022-12-19T03:39:29;41.67;;;23.43;;
2840;SDS011;53423;49.224;12.074;2022-12-19T03:41:58;40.73;;;23.80;;
2840;SDS011;53423;49.224;12.074;2022-12-19T03:44:47;44.90;;;24.87;;
2840;SDS011;53423;49.224;12.074;2022-12-19T03:47:19;43.40;;;23.33;;
2840;SDS011;53423;49.224;12.074;2022-12-19T03:49:52;49.80;;;25.07;;
2840;SDS011;53423;49.224;12.074;2022-12-19T03:52:23;43.03;;;24.13;;
2840;SDS011;53423;49.224;12.074;2022-12-19T03:54:56;40.70;;;23.03;;
2840;SDS011;53423;49.224;12.074;2022-12-19T03:57:28;42.13;;;23.23;;
2840;SDS011;53423;49.224;12.074;2022-12-19T04:00:02;43.80;;;24.27;;
2840;SDS011;53423;49.224;12.074;2022-12-19T04:02:33;48.83;;;25.87;;
2840;SDS011;53423;49.224;12.074;2022-12-19T04:05:06;44.87;;;23.37;;
2840;SDS011;53423;49.224;12.074;2022-12-19T04:07:37;43.63;;;22.90;;
2840;SDS011;53423;49.224;12.074;2022-12-19T04:10:07;44.33;;;25.37;;
2840;SDS011;53423;49.224;12.074;2022-12-19T04:12:39;47.43;;;23.63;;
2840;SDS011;53423;49.224;12.074;2022-12-19T04:15:11;41.53;;;23.10;;
2840;SDS011;53423;49.224;12.074;2022-12-19T04:17:41;41.37;;;23.57;;
2840;SDS011;53423;49.224;12.074;2022-12-19T04:20:16;43.93;;;24.97;;
2840;SDS011;53423;49.224;12.074;2022-12-19T04:22:47;44.97;;;24.23;;
2840;SDS011;53423;49.224;12.074;2022-12-19T04:25:20;44.03;;;23.40;;
2840;SDS011;53423;49.224;12.074;2022-12-19T04:27:56;44.60;;;25.00;;
2840;SDS011;53423;49.224;12.074;2022-12-19T04:30:28;41.70;;;23.80;;
2840;SDS011;53423;49.224;12.074;2022-12-19T04:33:02;43.93;;;24.27;;
2840;SDS011;53423;49.224;12.074;2022-12-19T04:35:34;42.63;;;24.03;;
2840;SDS011;53423;49.224;12.074;2022-12-19T04:38:02;44.80;;;24.50;;
2840;SDS011;53423;49.224;12.074;2022-12-19T04:40:32;41.30;;;23.87;;
2840;SDS011;53423;49.224;12.074;2022-12-19T04:43:06;42.03;;;23.83;;
2840;SDS011;53423;49.224;12.074;2022-12-19T04:45:34;39.90;;;24.53;;
2840;SDS011;53423;49.224;12.074;2022-12-19T04:48:03;41.80;;;24.27;;
2840;SDS011;53423;49.224;12.074;2022-12-19T04:50:34;46.07;;;24.13;;
2840;SDS011;53423;49.224;12.074;2022-12-19T04:53:02;40.27;;;24.20;;
2840;SDS011;53423;49.224;12.074;2022-12-19T04:55:30;43.83;;;23.20;;
2840;SDS011;53423;49.224;12.074;2022-12-19T04:57:58;40.27;;;24.53;;
2840;SDS011;53423;49.224;12.074;2022-12-19T05:00:30;42.40;;;25.20;;
2840;SDS011;53423;49.224;12.074;2022-12-19T05:02:58;42.40;;;24.83;;
2840;SDS011;53423;49.224;12.074;2022-12-19T05:05:26;44.17;;;23.50;;
2840;SDS011;53423;49.224;12.074;2022-12-19T05:07:56;40.20;;;23.80;;
2840;SDS011;53423;49.224;12.074;2022-12-19T05:10:24;43.53;;;25.33;;
2840;SDS011;53423;49.224;12.074;2022-12-19T05:12:52;39.83;;;24.50;;
2840;SDS011;53423;49.224;12.074;2022-12-19T05:15:20;47.80;;;24.97;;
2840;SDS011;53423;49.224;12.074;2022-12-19T05:17:48;45.13;;;24.53;;
2840;SDS011;53423;49.224;12.074;2022-12-19T05:20:16;43.57;;;24.57;;
2840;SDS011;53423;49.224;12.074;2022-12-19T05:22:44;46.43;;;23.50;;
2840;SDS011;53423;49.224;12.074;2022-12-19T05:25:14;44.10;;;23.63;;
2840;SDS011;53423;49.224;12.074;2022-12-19T05:27:42;42.50;;;25.30;;
2840;SDS011;53423;49.224;12.074;2022-12-19T05:30:10;39.33;;;23.17;;
2840;SDS011;53423;49.224;12.074;2022-12-19T05:32:38;42.60;;;24.77;;
2840;SDS011;53423;49.224;12.074;2022-12-19T05:35:06;42.40;;;24.07;;
2840;SDS011;53423;49.224;12.074;2022-12-19T05:37:34;43.20;;;24.33;;
2840;SDS011;53423;49.224;12.074;2022-12-19T05:40:02;45.70;;;24.20;;
2840;SDS011;53423;49.224;12.074;2022-12-19T05:42:32;41.93;;;24.27;;
2840;SDS011;53423;49.224;12.074;2022-12-19T05:45:00;40.97;;;23.17;;
2840;SDS011;53423;49.224;12.074;2022-12-19T05:47:28;45.07;;;25.40;;
2840;SDS011;53423;49.224;12.074;2022-12-19T05:49:56;41.67;;;23.67;;
2840;SDS011;53423;49.224;12.074;2022-12-19T05:52:24;47.13;;;24.40;;
2840;SDS011;53423;49.224;12.074;2022-12-19T05:54:52;42.13;;;24.73;;
2840;SDS011;53423;49.224;12.074;2022-12-19T05:57:20;48.53;;;28.43;;
2840;SDS011;53423;49.224;12.074;2022-12-19T05:59:49;44.23;;;27.23;;
2840;SDS011;53423;49.224;12.074;2022-12-19T06:02:17;43.77;;;26.90;;
2840;SDS011;53423;49.224;12.074;2022-12-19T06:04:45;47.30;;;27.83;;
2840;SDS011;53423;49.224;12.074;2022-12-19T06:07:13;44.43;;;25.67;;
2840;SDS011;53423;49.224;12.074;2022-12-19T06:09:46;42.43;;;24.13;;
2840;SDS011;53423;49.224;12.074;2022-12-19T06:12:14;45.53;;;25.00;;
2840;SDS011;53423;49.224;12.074;2022-12-19T06:14:42;40.33;;;24.33;;
2840;SDS011;53423;49.224;12.074;2022-12-19T06:17:11;42.97;;;24.30;;
2840;SDS011;53423;49.224;12.074;2022-12-19T06:19:39;43.60;;;24.07;;
2840;SDS011;53423;49.224;12.074;2022-12-19T06:22:07;42.10;;;25.13;;
2840;SDS011;53423;49.224;12.074;2022-12-19T06:24:38;44.47;;;25.00;;
2840;SDS011;53423;49.224;12.074;2022-12-19T06:27:05;41.30;;;23.73;;
2840;SDS011;53423;49.224;12.074;2022-12-19T06:29:33;43.20;;;24.03;;
2840;SDS011;53423;49.224;12.074;2022-12-19T06:32:01;44.83;;;23.43;;
2840;SDS011;53423;49.224;12.074;2022-12-19T06:34:31;45.80;;;24.33;;
2840;SDS011;53423;49.224;12.074;2022-12-19T06:37:18;43.10;;;23.57;;
2840;SDS011;53423;49.224;12.074;2022-12-19T06:39:46;44.57;;;24.60;;
2840;SDS011;53423;49.224;12.074;2022-12-19T06:42:16;47.80;;;25.60;;
2840;SDS011;53423;49.224;12.074;2022-12-19T06:44:50;43.03;;;25.57;;
2840;SDS011;53423;49.224;12.074;2022-12-19T06:47:21;47.90;;;23.10;;
2840;SDS011;53423;49.224;12.074;2022-12-19T06:49:51;44.67;;;25.17;;
2840;SDS011;53423;49.224;12.074;2022-12-19T06:52:19;43.70;;;24.53;;
2840;SDS011;53423;49.224;12.074;2022-12-19T06:54:47;41.60;;;25.73;;
2840;SDS011;53423;49.224;12.074;2022-12-19T06:57:15;42.40;;;23.47;;
2840;SDS011;53423;49.224;12.074;2022-12-19T06:59:43;42.33;;;24.00;;
2840;SDS011;53423;49.224;12.074;2022-12-19T07:02:15;46.67;;;25.43;;
2840;SDS011;53423;49.224;12.074;2022-12-19T07:04:50;44.63;;;25.53;;
2840;SDS011;53423;49.224;12.074;2022-12-19T07:07:26;44.43;;;25.43;;
2840;SDS011;53423;49.224;12.074;2022-12-19T07:09:55;44.97;;;25.67;;
2840;SDS011;53423;49.224;12.074;2022-12-19T07:12:23;48.97;;;26.70;;
2840;SDS011;53423;49.224;12.074;2022-12-19T07:14:50;41.80;;;24.90;;
2840;SDS011;53423;49.224;12.074;2022-12-19T07:17:19;43.60;;;25.23;;
2840;SDS011;53423;49.224;12.074;2022-12-19T07:19:49;48.27;;;25.73;;
2840;SDS011;53423;49.224;12.074;2022-12-19T07:22:21;49.37;;;26.50;;
2840;SDS011;53423;49.224;12.074;2022-12-19T07:24:50;47.27;;;25.90;;
2840;SDS011;53423;49.224;12.074;2022-12-19T07:27:18;41.73;;;24.87;;
2840;SDS011;53423;49.224;12.074;2022-12-19T07:29:46;45.07;;;27.53;;
2840;SDS011;53423;49.224;12.074;2022-12-19T07:32:13;42.90;;;27.00;;
2840;SDS011;53423;49.224;12.074;2022-12-19T07:34:41;51.83;;;28.77;;
2840;SDS011;53423;49.224;12.074;2022-12-19T07:37:09;45.73;;;26.93;;
2840;SDS011;53423;49.224;12.074;2022-12-19T07:39:38;52.07;;;29.33;;
2840;SDS011;53423;49.224;12.074;2022-12-19T07:42:06;49.23;;;29.23;;
2840;SDS011;53423;49.224;12.074;2022-12-19T07:44:34;48.37;;;28.13;;
2840;SDS011;53423;49.224;12.074;2022-12-19T07:47:02;43.77;;;25.90;;
2840;SDS011;53423;49.224;12.074;2022-12-19T07:49:30;46.57;;;25.73;;
2840;SDS011;53423;49.224;12.074;2022-12-19T07:51:58;47.17;;;27.33;;
2840;SDS011;53423;49.224;12.074;2022-12-19T07:54:26;45.20;;;26.50;;
2840;SDS011;53423;49.224;12.074;2022-12-19T07:56:55;45.73;;;27.30;;
2840;SDS011;53423;49.224;12.074;2022-12-19T07:59:23;46.53;;;27.87;;
2840;SDS011;53423;49.224;12.074;2022-12-19T08:01:57;47.23;;;27.90;;
2840;SDS011;53423;49.224;12.074;2022-12-19T08:04:25;45.07;;;28.33;;
2840;SDS011;53423;49.224;12.074;2022-12-19T08:06:53;46.83;;;28.90;;
2840;SDS011;53423;49.224;12.074;2022-12-19T08:09:21;47.77;;;27.03;;
2840;SDS011;53423;49.224;12.074;2022-12-19T08:11:52;48.33;;;29.03;;
2840;SDS011;53423;49.224;12.074;2022-12-19T08:14:22;48.63;;;30.40;;
2840;SDS011;53423;49.224;12.074;2022-12-19T08:16:50;49.63;;;29.20;;
2840;SDS011;53423;49.224;12.074;2022-12-19T08:19:38;48.83;;;30.03;;
2840;SDS011;53423;49.224;12.074;2022-12-19T08:22:06;47.37;;;29.70;;
2840;SDS011;53423;49.224;12.074;2022-12-19T08:24:34;51.40;;;30.93;;
2840;SDS011;53423;49.224;12.074;2022-12-19T08:27:02;46.17;;;30.23;;
2840;SDS011;53423;49.224;12.074;2022-12-19T08:29:31;55.03;;;33.63;;
2840;SDS011;53423;49.224;12.074;2022-12-19T08:31:59;58.50;;;32.87;;
2840;SDS011;53423;49.224;12.074;2022-12-19T08:34:27;50.03;;;31.80;;
2840;SDS011;53423;49.224;12.074;2022-12-19T08:36:55;52.07;;;32.43;;
2840;SDS011;53423;49.224;12.074;2022-12-19T08:39:23;54.83;;;32.87;;
2840;SDS011;53423;49.224;12.074;2022-12-19T08:41:51;54.63;;;32.17;;
2840;SDS011;53423;49.224;12.074;2022-12-19T08:44:19;51.73;;;32.27;;
2840;SDS011;53423;49.224;12.074;2022-12-19T08:46:49;47.93;;;31.47;;
2840;SDS011;53423;49.224;12.074;2022-12-19T08:49:17;47.67;;;30.50;;
2840;SDS011;53423;49.224;12.074;2022-12-19T08:51:45;44.13;;;28.10;;
2840;SDS011;53423;49.224;12.074;2022-12-19T08:54:13;41.67;;;27.20;;
2840;SDS011;53423;49.224;12.074;2022-12-19T08:56:41;42.03;;;26.67;;
2840;SDS011;53423;49.224;12.074;2022-12-19T08:59:12;42.20;;;25.63;;
2840;SDS011;53423;49.224;12.074;2022-12-19T09:01:57;42.77;;;25.73;;
2840;SDS011;53423;49.224;12.074;2022-12-19T09:04:26;40.00;;;26.23;;
2840;SDS011;53423;49.224;12.074;2022-12-19T09:07:15;44.13;;;25.23;;
2840;SDS011;53423;49.224;12.074;2022-12-19T09:09:43;38.30;;;23.77;;
2840;SDS011;53423;49.224;12.074;2022-12-19T09:12:11;37.60;;;24.17;;
2840;SDS011;53423;49.224;12.074;2022-12-19T09:14:40;39.00;;;23.00;;
2840;SDS011;53423;49.224;12.074;2022-12-19T09:17:10;38.77;;;23.37;;
2840;SDS011;53423;49.224;12.074;2022-12-19T09:19:39;40.27;;;25.47;;
2840;SDS011;53423;49.224;12.074;2022-12-19T09:22:13;35.80;;;22.87;;
2840;SDS011;53423;49.224;12.074;2022-12-19T09:24:41;37.67;;;23.90;;
2840;SDS011;53423;49.224;12.074;2022-12-19T09:27:09;37.97;;;23.80;;
2840;SDS011;53423;49.224;12.074;2022-12-19T09:29:39;41.13;;;26.40;;
2840;SDS011;53423;49.224;12.074;2022-12-19T09:32:07;38.30;;;24.30;;
2840;SDS011;53423;49.224;12.074;2022-12-19T09:34:37;39.77;;;24.83;;
2840;SDS011;53423;49.224;12.074;2022-12-19T09:37:05;41.27;;;25.37;;
2840;SDS011;53423;49.224;12.074;2022-12-19T09:39:34;38.10;;;24.57;;
2840;SDS011;53423;49.224;12.074;2022-12-19T09:42:12;38.37;;;24.13;;
2840;SDS011;53423;49.224;12.074;2022-12-19T09:45:03;37.53;;;24.30;;
2840;SDS011;53423;49.224;12.074;2022-12-19T09:47:58;37.53;;;23.30;;
2840;SDS011;53423;49.224;12.074;2022-12-19T09:50:31;35.50;;;22.60;;
2840;SDS011;53423;49.224;12.074;2022-12-19T09:53:06;37.53;;;24.27;;
2840;SDS011;53423;49.224;12.074;2022-12-19T09:55:43;35.53;;;22.73;;
2840;SDS011;53423;49.224;12.074;2022-12-19T09:58:14;33.80;;;22.77;;
2840;SDS011;53423;49.224;12.074;2022-12-19T10:00:52;34.37;;;22.80;;
2840;SDS011;53423;49.224;12.074;2022-12-19T10:03:26;33.47;;;22.07;;
2840;SDS011;53423;49.224;12.074;2022-12-19T10:06:10;32.53;;;22.13;;
2840;SDS011;53423;49.224;12.074;2022-12-19T10:09:04;33.53;;;22.60;;
2840;SDS011;53423;49.224;12.074;2022-12-19T10:12:07;34.43;;;21.93;;
2840;SDS011;53423;49.224;12.074;2022-12-19T10:15:15;32.47;;;21.93;;
2840;SDS011;53423;49.224;12.074;2022-12-19T10:18:01;33.93;;;22.83;;
2840;SDS011;53423;49.224;12.074;2022-12-19T10:20:41;34.67;;;21.33;;
2840;SDS011;53423;49.224;12.074;2022-12-19T10:23:21;32.60;;;21.03;;
2840;SDS011;53423;49.224;12.074;2022-12-19T10:26:03;30.67;;;21.67;;
2840;SDS011;53423;49.224;12.074;2022-12-19T10:28:44;32.30;;;21.27;;
2840;SDS011;53423;49.224;12.074;2022-12-19T10:31:24;30.97;;;22.20;;
2840;SDS011;53423;49.224;12.074;2022-12-19T10:33:59;33.67;;;22.10;;
2840;SDS011;53423;49.224;12.074;2022-12-19T10:36:39;33.47;;;21.43;;
2840;SDS011;53423;49.224;12.074;2022-12-19T10:39:34;33.07;;;22.30;;
2840;SDS011;53423;49.224;12.074;2022-12-19T10:42:14;30.47;;;20.57;;
2840;SDS011;53423;49.224;12.074;2022-12-19T10:44:46;30.80;;;21.20;;
2840;SDS011;53423;49.224;12.074;2022-12-19T10:47:18;28.77;;;20.43;;
2840;SDS011;53423;49.224;12.074;2022-12-19T10:49:46;30.60;;;20.40;;
2840;SDS011;53423;49.224;12.074;2022-12-19T10:52:14;35.13;;;22.30;;
2840;SDS011;53423;49.224;12.074;2022-12-19T10:55:20;31.60;;;21.33;;
2840;SDS011;53423;49.224;12.074;2022-12-19T10:57:56;28.63;;;20.23;;
2840;SDS011;53423;49.224;12.074;2022-12-19T11:00:26;31.00;;;20.53;;
2840;SDS011;53423;49.224;12.074;2022-12-19T11:03:07;29.83;;;20.13;;
2840;SDS011;53423;49.224;12.074;2022-12-19T11:05:45;32.70;;;20.87;;
2840;SDS011;53423;49.224;12.074;2022-12-19T11:08:24;31.23;;;20.60;;
2840;SDS011;53423;49.224;12.074;2022-12-19T11:10:55;28.90;;;19.80;;
2840;SDS011;53423;49.224;12.074;2022-12-19T11:13:55;30.10;;;20.40;;
2840;SDS011;53423;49.224;12.074;2022-12-19T11:16:43;28.77;;;20.73;;
2840;SDS011;53423;49.224;12.074;2022-12-19T11:19:32;31.53;;;20.63;;
2840;SDS011;53423;49.224;12.074;2022-12-19T11:22:22;29.40;;;20.10;;
2840;SDS011;53423;49.224;12.074;2022-12-19T11:25:15;29.93;;;20.10;;
2840;SDS011;53423;49.224;12.074;2022-12-19T11:28:09;27.40;;;19.73;;
2840;SDS011;53423;49.224;12.074;2022-12-19T11:31:05;29.50;;;19.60;;
2840;SDS011;53423;49.224;12.074;2022-12-19T11:34:01;28.80;;;19.93;;
2840;SDS011;53423;49.224;12.074;2022-12-19T11:36:31;28.30;;;20.07;;
2840;SDS011;53423;49.224;12.074;2022-12-19T11:39:04;29.20;;;20.30;;
2840;SDS011;53423;49.224;12.074;2022-12-19T11:41:44;28.70;;;20.40;;
2840;SDS011;53423;49.224;12.074;2022-12-19T11:44:19;31.33;;;20.70;;
2840;SDS011;53423;49.224;12.074;2022-12-19T11:46:55;28.83;;;21.03;;
2840;SDS011;53423;49.224;12.074;2022-12-19T11:49:31;29.73;;;20.70;;
2840;SDS011;53423;49.224;12.074;2022-12-19T11:52:05;30.10;;;19.87;;
2840;SDS011;53423;49.224;12.074;2022-12-19T11:55:02;28.63;;;20.60;;
2840;SDS011;53423;49.224;12.074;2022-12-19T11:57:34;25.67;;;19.20;;
2840;SDS011;53423;49.224;12.074;2022-12-19T12:00:10;29.80;;;19.93;;
2840;SDS011;53423;49.224;12.074;2022-12-19T12:02:44;28.23;;;19.80;;
2840;SDS011;53423;49.224;12.074;2022-12-19T12:05:34;26.43;;;19.17;;
2840;SDS011;53423;49.224;12.074;2022-12-19T12:11:30;29.80;;;20.10;;
2840;SDS011;53423;49.224;12.074;2022-12-19T12:14:27;25.83;;;19.63;;
2840;SDS011;53423;49.224;12.074;2022-12-19T12:17:42;27.30;;;19.07;;
2840;SDS011;53423;49.224;12.074;2022-12-19T12:20:39;28.07;;;20.27;;
2840;SDS011;53423;49.224;12.074;2022-12-19T12:23:35;28.47;;;18.97;;
2840;SDS011;53423;49.224;12.074;2022-12-19T12:26:32;31.63;;;21.07;;
2840;SDS011;53423;49.224;12.074;2022-12-19T12:29:23;31.43;;;21.47;;
2840;SDS011;53423;49.224;12.074;2022-12-19T12:32:19;32.33;;;21.23;;
2840;SDS011;53423;49.224;12.074;2022-12-19T12:35:32;28.17;;;20.70;;
2840;SDS011;53423;49.224;12.074;2022-12-19T12:38:37;26.87;;;20.70;;
2840;SDS011;53423;49.224;12.074;2022-12-19T12:41:18;27.87;;;19.60;;
2840;SDS011;53423;49.224;12.074;2022-12-19T12:44:13;29.33;;;20.57;;
2840;SDS011;53423;49.224;12.074;2022-12-19T12:46:45;28.40;;;20.27;;
2840;SDS011;53423;49.224;12.074;2022-12-19T12:49:21;28.27;;;20.27;;
2840;SDS011;53423;49.224;12.074;2022-12-19T12:52:00;28.93;;;20.67;;
2840;SDS011;53423;49.224;12.074;2022-12-19T12:54:32;29.63;;;21.07;;
2840;SDS011;53423;49.224;12.074;2022-12-19T12:57:02;27.73;;;19.67;;
2840;SDS011;53423;49.224;12.074;2022-12-19T12:59:30;28.73;;;20.00;;
2840;SDS011;53423;49.224;12.074;2022-12-19T13:01:59;26.40;;;19.40;;
2840;SDS011;53423;49.224;12.074;2022-12-19T13:04:33;29.33;;;19.93;;
2840;SDS011;53423;49.224;12.074;2022-12-19T13:07:12;31.90;;;21.03;;
2840;SDS011;53423;49.224;12.074;2022-12-19T13:09:48;27.10;;;20.47;;
2840;SDS011;53423;49.224;12.074;2022-12-19T13:12:23;28.13;;;20.17;;
2840;SDS011;53423;49.224;12.074;2022-12-19T13:15:18;29.37;;;20.50;;
2840;SDS011;53423;49.224;12.074;2022-12-19T13:18:06;30.27;;;19.57;;
2840;SDS011;53423;49.224;12.074;2022-12-19T13:20:39;30.40;;;20.40;;
2840;SDS011;53423;49.224;12.074;2022-12-19T13:23:31;28.73;;;20.40;;
2840;SDS011;53423;49.224;12.074;2022-12-19T13:26:17;28.40;;;20.27;;
2840;SDS011;53423;49.224;12.074;2022-12-19T13:28:47;30.37;;;21.40;;
2840;SDS011;53423;49.224;12.074;2022-12-19T13:31:17;31.30;;;21.67;;
2840;SDS011;53423;49.224;12.074;2022-12-19T13:36:48;27.70;;;19.57;;
2840;SDS011;53423;49.224;12.074;2022-12-19T13:39:41;28.67;;;20.50;;
2840;SDS011;53423;49.224;12.074;2022-12-19T13:42:37;29.90;;;20.33;;
2840;SDS011;53423;49.224;12.074;2022-12-19T13:45:39;32.03;;;21.20;;
2840;SDS011;53423;49.224;12.074;2022-12-19T13:48:14;29.73;;;21.27;;
2840;SDS011;53423;49.224;12.074;2022-12-19T13:50:52;28.93;;;19.80;;
2840;SDS011;53423;49.224;12.074;2022-12-19T13:53:21;28.93;;;20.27;;
2840;SDS011;53423;49.224;12.074;2022-12-19T13:55:54;30.37;;;20.23;;
2840;SDS011;53423;49.224;12.074;2022-12-19T13:58:26;29.17;;;20.60;;
2840;SDS011;53423;49.224;12.074;2022-12-19T14:00:57;28.60;;;20.63;;
2840;SDS011;53423;49.224;12.074;2022-12-19T14:03:32;28.60;;;19.77;;
2840;SDS011;53423;49.224;12.074;2022-12-19T14:06:07;28.60;;;20.30;;
2840;SDS011;53423;49.224;12.074;2022-12-19T14:08:45;29.17;;;20.27;;
2840;SDS011;53423;49.224;12.074;2022-12-19T14:11:37;28.63;;;19.80;;
2840;SDS011;53423;49.224;12.074;2022-12-19T14:14:27;26.60;;;19.90;;
2840;SDS011;53423;49.224;12.074;2022-12-19T14:17:27;29.37;;;20.53;;
2840;SDS011;53423;49.224;12.074;2022-12-19T14:19:55;28.70;;;19.90;;
2840;SDS011;53423;49.224;12.074;2022-12-19T14:22:43;27.67;;;20.13;;
2840;SDS011;53423;49.224;12.074;2022-12-19T14:25:11;29.40;;;19.70;;
2840;SDS011;53423;49.224;12.074;2022-12-19T14:28:01;27.17;;;19.90;;
2840;SDS011;53423;49.224;12.074;2022-12-19T14:30:49;29.53;;;21.50;;
2840;SDS011;53423;49.224;12.074;2022-12-19T14:33:21;28.63;;;21.00;;
2840;SDS011;53423;49.224;12.074;2022-12-19T14:36:14;26.90;;;19.13;;
2840;SDS011;53423;49.224;12.074;2022-12-19T14:38:51;29.90;;;20.43;;
2840;SDS011;53423;49.224;12.074;2022-12-19T14:41:41;29.67;;;21.03;;
2840;SDS011;53423;49.224;12.074;2022-12-19T14:44:43;27.90;;;19.23;;
2840;SDS011;53423;49.224;12.074;2022-12-19T14:47:33;27.13;;;19.37;;
2840;SDS011;53423;49.224;12.074;2022-12-19T14:50:26;28.70;;;19.23;;
2840;SDS011;53423;49.224;12.074;2022-12-19T14:53:16;29.97;;;20.63;;
2840;SDS011;53423;49.224;12.074;2022-12-19T14:56:05;28.93;;;20.93;;
2840;SDS011;53423;49.224;12.074;2022-12-19T14:58:55;28.60;;;19.50;;
2840;SDS011;53423;49.224;12.074;2022-12-19T15:01:26;25.97;;;20.13;;
2840;SDS011;53423;49.224;12.074;2022-12-19T15:03:58;26.60;;;19.83;;
2840;SDS011;53423;49.224;12.074;2022-12-19T15:06:50;26.80;;;19.20;;
2840;SDS011;53423;49.224;12.074;2022-12-19T15:09:36;27.23;;;19.50;;
2840;SDS011;53423;49.224;12.074;2022-12-19T15:12:33;25.77;;;18.40;;
2840;SDS011;53423;49.224;12.074;2022-12-19T15:15:50;25.07;;;18.90;;
2840;SDS011;53423;49.224;12.074;2022-12-19T15:18:23;27.07;;;18.97;;
2840;SDS011;53423;49.224;12.074;2022-12-19T15:20:53;25.73;;;18.97;;
2840;SDS011;53423;49.224;12.074;2022-12-19T15:23:22;27.93;;;19.93;;